KVAD/VAD METAR and TAF weather

Enter ICAO airport designator
Station Type Date Time Source
KVAD METAR 2019/02/22 23:56 UTC NOAA

KVAD 222356Z AUTO 24003KT 10SM FEW100 25/19 A3014 RMK AO2 SLPNO T02490186 10288 20249 53005 $


Station Type Date Time Source
KVAD Decoded METAR 2019/02/22 23:56 UTC NOAA

Moody Air Force Base, GA, United States (KVAD) 30-58N 083-12W 71M
Feb 22, 2019 - 06:56 PM EST / 2019.02.22 2356 UTC
Wind: from the WSW (240 degrees) at 3 MPH (3 KT):0
Visibility: 10 mile(s):0
Sky conditions: mostly clear
Temperature: 76.8 F (24.9 C)
Dew Point: 65.5 F (18.6 C)
Relative Humidity: 68%
Pressure (altimeter): 30.14 in. Hg (1020 hPa)
Pressure tendency: 0.01 inches (0.5 hPa) higher than three hours ago
ob: KVAD 222356Z AUTO 24003KT 10SM FEW100 25/19 A3014 RMK AO2 SLPNO T02490186 10288 20249 53005
cycle: 0

Station Type Date Time Source
KVAD TAF 2019/02/22 22:09 UTC NOAA

TAF
AMD KVAD 222205Z 2222/2323 22009KT 9999 SCT020 SCT060 QNH3015INS
BECMG 2305/2306 11006KT 4800 BR SCT010 BKN015 QNH3014INS
BECMG 2308/2309 09004KT 1600 BR OVC005 QNH3013INS
BECMG 2313/2314 10006KT 4800 BR OVC005 QNH3014INS
BECMG 2315/2316 10009KT 9999 NSW BKN010 OVC020 QNH3012INS
BECMG 2316/2317 15012KT 9999 SCT020 BKN040 QNH3007INS TX28/2222Z TN16/2311Z LAST NO
AMDS AFT 2222 NEXT 2509


Example: see airport list